Pinar de Chamartin, Spain
Current Conditions -  °F | °C
As of 7:30 AM on Thursday 27 Nov 2014 (Local Time) from LEMD Reporting Station
Broken Clouds Broken Clouds  
Wind Chill: 45°   Ceiling: 5000
Heat Index: 45°   Visibility: 6mi
Dew Point: 43°   Wind: 3mph
Humidity: 93%   Direction: 350°N
Pressure: 29.65"   Gusts: NA
Location:  40.48°N, 3.67°W
Report Text: LEMD 270630Z 35003KT 9999 FEW025 BKN050 07/06 Q1004 NOSIG
Loading
Personal Weather Stations






























Interactive Weather Map New forecast layout! Learn more

10-Day Weather Forecast

Advertisements
Track Severe Weather on mobile